createdAt,value
2023-01-10T00:01:13.315Z,90.74
2023-01-10T00:04:15.810Z,90.66
2023-01-10T00:07:18.391Z,91.12
2023-01-10T00:10:21.121Z,91.15
2023-01-10T00:13:23.636Z,91.22
2023-01-10T00:16:26.847Z,91.33
2023-01-10T00:19:29.624Z,91.44
2023-01-10T00:22:32.212Z,91.75
2023-01-10T00:25:36.173Z,91.68
2023-01-10T00:28:39.459Z,92.01
2023-01-10T00:31:42.197Z,91.58
2023-01-10T00:34:44.766Z,91.13
2023-01-10T00:37:47.216Z,91.80
2023-01-10T00:40:49.923Z,91.60
2023-01-10T00:43:58.147Z,92.02
2023-01-10T00:47:00.704Z,91.55
2023-01-10T00:50:06.045Z,91.75
2023-01-10T00:53:08.964Z,91.16
2023-01-10T00:56:11.453Z,91.88
2023-01-10T00:59:13.935Z,91.55
2023-01-10T01:02:16.572Z,91.65
2023-01-10T01:05:19.599Z,91.79
2023-01-10T01:08:22.329Z,91.56
2023-01-10T01:11:25.538Z,91.50
2023-01-10T01:14:28.056Z,91.78
2023-01-10T01:17:30.742Z,91.89
2023-01-10T01:20:34.843Z,91.80
2023-01-10T01:23:37.349Z,91.93
2023-01-10T01:26:42.073Z,91.67
2023-01-10T01:29:45.389Z,91.45
2023-01-10T01:32:47.885Z,91.73
2023-01-10T01:35:50.776Z,91.39
2023-01-10T01:38:53.207Z,91.38
2023-01-10T01:41:58.340Z,91.50
2023-01-10T01:45:09.722Z,91.44
2023-01-10T01:48:18.894Z,91.65
2023-01-10T01:51:27.236Z,91.78
2023-01-10T01:54:31.629Z,91.38
2023-01-10T01:57:35.613Z,91.44
2023-01-10T02:00:38.152Z,91.49
2023-01-10T02:03:43.077Z,91.75
2023-01-10T02:06:48.058Z,91.94
2023-01-10T02:10:17.154Z,91.89
2023-01-10T02:13:23.409Z,91.74
2023-01-10T02:16:26.024Z,91.84
2023-01-10T02:19:56.339Z,91.95
2023-01-10T02:23:13.708Z,92.07
2023-01-10T02:26:37.805Z,91.80
2023-01-10T02:30:14.241Z,91.54
2023-01-10T02:33:20.588Z,91.39
2023-01-10T02:37:10.748Z,91.77
2023-01-10T02:40:31.165Z,91.81
2023-01-10T02:43:39.835Z,91.45
2023-01-10T02:46:44.641Z,91.70
2023-01-10T02:49:49.445Z,91.29
2023-01-10T02:52:52.419Z,91.60
2023-01-10T02:56:20.726Z,91.99
2023-01-10T03:00:00.121Z,91.68
2023-01-10T03:03:47.447Z,92.05
2023-01-10T03:06:59.435Z,91.25
2023-01-10T03:10:14.832Z,91.97
2023-01-10T03:13:31.340Z,91.39
2023-01-10T03:16:38.033Z,91.68
2023-01-10T03:20:02.605Z,92.15
2023-01-10T03:23:07.007Z,91.88
2023-01-10T03:26:11.413Z,92.55
2023-01-10T03:29:18.565Z,92.33
2023-01-10T03:32:25.221Z,92.45
2023-01-10T03:35:39.313Z,92.45
2023-01-10T03:38:52.665Z,92.47
2023-01-10T03:42:13.036Z,92.29
2023-01-10T03:45:21.448Z,92.68
2023-01-10T03:48:29.832Z,92.37
2023-01-10T03:51:33.097Z,92.43
2023-01-10T03:54:35.591Z,92.65
2023-01-10T03:57:41.455Z,92.01
2023-01-10T04:00:43.935Z,92.25
2023-01-10T04:03:46.547Z,92.45
2023-01-10T04:06:49.084Z,91.88
2023-01-10T04:09:51.780Z,92.44
2023-01-10T04:12:54.307Z,91.74
2023-01-10T04:16:00.146Z,91.29
2023-01-10T04:19:02.644Z,92.45
2023-01-10T04:22:05.965Z,92.06
2023-01-10T04:25:08.873Z,92.67
2023-01-10T04:28:11.358Z,92.31
2023-01-10T04:31:13.881Z,92.00
2023-01-10T04:34:16.630Z,92.11
2023-01-10T04:37:19.890Z,92.60
2023-01-10T04:40:24.222Z,92.29
2023-01-10T04:43:26.764Z,92.33
2023-01-10T04:46:29.258Z,92.56
2023-01-10T04:49:31.782Z,92.13
2023-01-10T04:52:34.170Z,92.46
2023-01-10T04:55:36.700Z,92.41
2023-01-10T04:58:39.166Z,92.46
2023-01-10T05:01:42.150Z,92.02
2023-01-10T05:04:44.858Z,92.08
2023-01-10T05:07:47.642Z,92.16
2023-01-10T05:10:50.151Z,92.02
2023-01-10T05:13:52.569Z,92.19
2023-01-10T05:16:56.138Z,92.19
2023-01-10T05:19:58.646Z,92.11
2023-01-10T05:23:01.105Z,92.16
2023-01-10T05:26:08.508Z,91.74
2023-01-10T05:29:11.529Z,91.86
2023-01-10T05:32:14.047Z,92.25
2023-01-10T05:35:17.416Z,92.41
2023-01-10T05:38:19.949Z,92.05
2023-01-10T05:41:23.643Z,92.55
2023-01-10T05:44:26.521Z,92.03
2023-01-10T05:47:29.105Z,92.31
2023-01-10T05:50:31.603Z,91.49
2023-01-10T05:53:36.115Z,92.21
2023-01-10T05:56:39.226Z,91.94
2023-01-10T05:59:44.721Z,92.36
2023-01-10T06:02:47.262Z,92.00
2023-01-10T06:05:49.848Z,91.78
2023-01-10T06:08:55.019Z,91.78
2023-01-10T06:11:58.222Z,91.93
2023-01-10T06:15:00.748Z,91.46
2023-01-10T06:18:04.196Z,91.35
2023-01-10T06:21:06.753Z,90.99
2023-01-10T06:24:10.397Z,91.28
2023-01-10T06:27:12.887Z,91.36
2023-01-10T06:30:15.686Z,91.17
2023-01-10T06:33:18.173Z,91.04
2023-01-10T06:36:20.935Z,90.94
2023-01-10T06:39:24.098Z,91.63
2023-01-10T06:42:26.735Z,91.11
2023-01-10T06:45:29.337Z,90.63
2023-01-10T06:48:31.896Z,91.16
2023-01-10T06:51:34.813Z,91.35
2023-01-10T06:54:37.389Z,91.14
2023-01-10T06:57:40.081Z,90.70
2023-01-10T07:00:42.578Z,90.51
2023-01-10T07:03:45.782Z,91.05
2023-01-10T07:06:48.451Z,90.87
2023-01-10T07:09:51.334Z,90.74
2023-01-10T07:12:58.747Z,90.84
2023-01-10T07:16:06.742Z,90.74
2023-01-10T07:19:09.379Z,90.77
2023-01-10T07:22:12.581Z,90.64
2023-01-10T07:25:15.175Z,90.87
2023-01-10T07:28:17.964Z,90.45
2023-01-10T07:31:22.957Z,90.60
2023-01-10T07:34:25.538Z,91.01
2023-01-10T07:37:28.001Z,91.02
2023-01-10T07:40:30.739Z,90.92
2023-01-10T07:43:33.952Z,90.79
2023-01-10T07:46:36.496Z,90.80
2023-01-10T07:49:39.186Z,90.29
2023-01-10T07:52:43.632Z,90.36
2023-01-10T07:55:46.267Z,90.47
2023-01-10T07:58:48.811Z,89.83
2023-01-10T08:01:51.486Z,90.03
2023-01-10T08:04:54.142Z,89.95
2023-01-10T08:08:00.146Z,89.99
2023-01-10T08:11:02.974Z,90.21
2023-01-10T08:14:05.531Z,90.81
2023-01-10T08:17:08.187Z,89.97
2023-01-10T08:20:11.351Z,89.80
2023-01-10T08:23:14.456Z,90.08
2023-01-10T08:26:16.970Z,89.38
2023-01-10T08:29:19.697Z,89.39
2023-01-10T08:32:23.097Z,89.85
2023-01-10T08:35:25.507Z,89.63
2023-01-10T08:38:28.555Z,89.32
2023-01-10T08:41:31.431Z,89.25
2023-01-10T08:44:33.850Z,88.90
2023-01-10T08:47:36.423Z,88.79
2023-01-10T08:50:39.044Z,89.41
2023-01-10T08:53:42.049Z,89.35
2023-01-10T08:56:44.630Z,89.20
2023-01-10T08:59:47.579Z,88.97
2023-01-10T09:02:50.407Z,88.58
2023-01-10T09:05:52.951Z,89.16
2023-01-10T09:08:55.443Z,88.78
2023-01-10T09:11:58.130Z,88.93
2023-01-10T09:15:00.747Z,88.65
2023-01-10T09:18:06.488Z,88.86
2023-01-10T09:21:08.988Z,88.49
2023-01-10T09:24:11.629Z,88.45
2023-01-10T09:27:14.051Z,89.14
2023-01-10T09:30:17.227Z,88.82
2023-01-10T09:33:20.229Z,88.76
2023-01-10T09:36:22.892Z,88.51
2023-01-10T09:39:25.623Z,89.40
2023-01-10T09:42:49.042Z,89.32
2023-01-10T09:45:56.267Z,88.86
2023-01-10T09:49:07.580Z,89.64
2023-01-10T09:52:30.494Z,88.75
2023-01-10T09:55:36.356Z,88.45
2023-01-10T09:58:39.379Z,89.34
2023-01-10T10:01:42.086Z,88.66
2023-01-10T10:04:53.248Z,88.97
2023-01-10T10:08:05.031Z,89.28
2023-01-10T10:11:27.795Z,88.83
2023-01-10T10:14:53.308Z,87.95
2023-01-10T10:18:07.876Z,88.72
2023-01-10T10:21:28.766Z,88.09
2023-01-10T10:24:37.821Z,88.50
2023-01-10T10:27:58.582Z,89.19
2023-01-10T10:31:11.221Z,88.40
2023-01-10T10:34:37.512Z,87.98
2023-01-10T10:37:46.086Z,87.29
2023-01-10T10:40:50.116Z,87.52
2023-01-10T10:43:54.486Z,86.90
2023-01-10T10:47:00.577Z,87.89
2023-01-10T10:50:05.767Z,87.64
2023-01-10T10:53:11.421Z,87.81
2023-01-10T10:56:17.309Z,87.64
2023-01-10T10:59:21.682Z,87.99
2023-01-10T11:02:32.896Z,88.11
2023-01-10T11:05:41.681Z,87.13
2023-01-10T11:08:47.398Z,87.66
2023-01-10T11:11:52.430Z,87.85
2023-01-10T11:14:54.983Z,87.88
2023-01-10T11:18:14.759Z,87.43
2023-01-10T11:21:21.671Z,87.85
2023-01-10T11:24:36.642Z,87.82
2023-01-10T11:27:57.234Z,86.88
2023-01-10T11:31:02.178Z,87.39
2023-01-10T11:34:08.622Z,87.23
2023-01-10T11:37:17.039Z,87.54
2023-01-10T11:40:25.856Z,87.39
2023-01-10T11:43:39.900Z,87.63
2023-01-10T11:46:47.142Z,86.90
2023-01-10T11:49:51.891Z,86.92
2023-01-10T11:52:55.586Z,87.15
2023-01-10T11:55:58.393Z,86.70
2023-01-10T11:59:18.087Z,86.74
2023-01-10T12:02:34.443Z,85.70
2023-01-10T12:05:37.960Z,86.40
2023-01-10T12:08:45.002Z,85.92
2023-01-10T12:11:47.841Z,86.20
2023-01-10T12:14:51.326Z,85.68
2023-01-10T12:17:57.173Z,86.28
2023-01-10T12:21:00.432Z,85.81
2023-01-10T12:24:12.713Z,86.02
2023-01-10T12:27:18.160Z,85.52
2023-01-10T12:30:33.562Z,85.29
2023-01-10T12:33:46.511Z,83.83
2023-01-10T12:37:16.711Z,85.12
2023-01-10T12:40:47.693Z,84.90
2023-01-10T12:44:08.997Z,84.46
2023-01-10T12:47:19.910Z,84.04
2023-01-10T12:50:43.858Z,83.39
2023-01-10T12:53:53.325Z,84.06
2023-01-10T12:56:58.956Z,82.24
2023-01-10T13:00:05.614Z,83.64
2023-01-10T13:03:15.405Z,83.49
2023-01-10T13:06:42.541Z,83.12
2023-01-10T13:09:47.437Z,82.69
2023-01-10T13:13:13.442Z,82.64
2023-01-10T13:16:24.087Z,82.18
2023-01-10T13:19:28.240Z,82.53
2023-01-10T13:22:36.869Z,82.41
2023-01-10T13:25:39.782Z,81.09
2023-01-10T13:28:56.061Z,80.68
2023-01-10T13:32:01.440Z,81.49
2023-01-10T13:35:15.022Z,81.63
2023-01-10T13:38:34.755Z,81.49
2023-01-10T13:42:43.792Z,80.23
2023-01-10T13:45:46.342Z,80.12
2023-01-10T13:48:51.773Z,80.15
2023-01-10T13:52:30.207Z,80.08
2023-01-10T13:55:53.764Z,80.64
2023-01-10T13:59:15.244Z,81.33
2023-01-10T14:02:29.028Z,78.49
2023-01-10T14:05:31.530Z,78.51
2023-01-10T14:08:34.215Z,78.59
2023-01-10T14:11:52.436Z,77.65
2023-01-10T14:15:26.040Z,76.36
2023-01-10T14:18:34.931Z,77.55
2023-01-10T14:21:45.557Z,77.62
2023-01-10T14:24:52.876Z,79.43
2023-01-10T14:27:58.770Z,78.67
2023-01-10T14:31:07.850Z,79.97
2023-01-10T14:34:16.743Z,79.81
2023-01-10T14:37:29.799Z,79.43
2023-01-10T14:40:32.256Z,80.54
2023-01-10T14:43:48.525Z,79.77
2023-01-10T14:46:53.823Z,80.03
2023-01-10T14:50:06.866Z,80.42
2023-01-10T14:53:26.333Z,79.54
2023-01-10T14:56:43.536Z,80.50
2023-01-10T14:59:46.988Z,80.58
2023-01-10T15:02:50.000Z,80.32
2023-01-10T15:05:56.627Z,80.29
2023-01-10T15:09:00.802Z,79.78
2023-01-10T15:12:06.790Z,79.79
2023-01-10T15:15:16.803Z,80.57
2023-01-10T15:18:33.325Z,81.52
2023-01-10T15:21:42.321Z,81.66
2023-01-10T15:24:57.839Z,81.50
2023-01-10T15:28:00.448Z,81.55
2023-01-10T15:31:08.332Z,82.02
2023-01-10T15:34:26.822Z,82.28
2023-01-10T15:37:38.228Z,81.84
2023-01-10T15:40:42.587Z,82.22
2023-01-10T15:43:45.636Z,81.21
2023-01-10T15:46:56.185Z,80.92
2023-01-10T15:49:58.874Z,80.50
2023-01-10T15:53:04.713Z,81.61
2023-01-10T15:56:19.375Z,81.23
2023-01-10T15:59:27.679Z,81.19
2023-01-10T16:02:33.774Z,79.59
2023-01-10T16:05:36.371Z,79.78
2023-01-10T16:08:39.628Z,80.53
2023-01-10T16:12:07.055Z,79.60
2023-01-10T16:15:17.208Z,78.62
2023-01-10T16:18:19.847Z,77.56
2023-01-10T16:21:22.719Z,78.63
2023-01-10T16:24:34.195Z,78.08
2023-01-10T16:27:36.755Z,77.95
2023-01-10T16:30:43.759Z,76.95
2023-01-10T16:33:46.209Z,78.09
2023-01-10T16:36:48.700Z,76.64
2023-01-10T16:39:51.386Z,77.47
2023-01-10T16:43:13.770Z,77.33
2023-01-10T16:46:16.537Z,77.16
2023-01-10T16:49:20.194Z,77.22
2023-01-10T16:52:23.148Z,76.23
2023-01-10T16:55:37.190Z,77.08
2023-01-10T16:58:39.729Z,76.62
2023-01-10T17:01:46.491Z,76.95
2023-01-10T17:04:49.105Z,76.48
2023-01-10T17:07:51.536Z,77.30
2023-01-10T17:10:59.408Z,75.19
2023-01-10T17:14:02.825Z,76.84
2023-01-10T17:17:05.487Z,75.44
2023-01-10T17:20:09.555Z,74.81
2023-01-10T17:23:15.057Z,74.63
2023-01-10T17:26:19.161Z,73.77
2023-01-10T17:29:23.476Z,74.75
2023-01-10T17:32:26.140Z,73.12
2023-01-10T17:35:29.100Z,73.51
2023-01-10T17:38:31.728Z,73.45
2023-01-10T17:41:35.679Z,72.52
2023-01-10T17:44:38.194Z,72.79
2023-01-10T17:47:40.678Z,72.67
2023-01-10T17:50:44.858Z,72.98
2023-01-10T17:53:47.312Z,72.49
2023-01-10T17:56:49.754Z,72.77
2023-01-10T17:59:52.250Z,74.37
2023-01-10T18:02:54.857Z,74.53
2023-01-10T18:05:59.065Z,74.90
2023-01-10T18:09:02.014Z,74.48
2023-01-10T18:12:06.223Z,74.56
2023-01-10T18:15:09.204Z,74.13
2023-01-10T18:18:12.787Z,73.64
2023-01-10T18:21:18.655Z,73.69
2023-01-10T18:24:21.532Z,72.82
2023-01-10T18:27:25.892Z,73.23
2023-01-10T18:30:29.078Z,73.58
2023-01-10T18:33:32.354Z,73.72
2023-01-10T18:36:37.661Z,73.29
2023-01-10T18:39:40.676Z,73.25
2023-01-10T18:42:43.544Z,72.65
2023-01-10T18:45:47.358Z,73.23
2023-01-10T18:48:52.553Z,72.90
2023-01-10T18:51:55.099Z,72.01
2023-01-10T18:54:57.638Z,71.09
2023-01-10T18:58:00.204Z,72.14
2023-01-10T19:01:11.791Z,72.08
2023-01-10T19:04:14.528Z,71.91
2023-01-10T19:07:17.249Z,71.95
2023-01-10T19:10:20.137Z,71.60
2023-01-10T19:13:22.921Z,71.84
2023-01-10T19:16:29.271Z,71.70
2023-01-10T19:19:31.908Z,71.96
2023-01-10T19:22:34.382Z,71.57
2023-01-10T19:25:36.807Z,71.68
2023-01-10T19:28:39.378Z,71.45
2023-01-10T19:31:42.527Z,71.25
2023-01-10T19:34:46.417Z,70.62
2023-01-10T19:37:49.033Z,71.74
2023-01-10T19:40:52.895Z,70.86
2023-01-10T19:44:00.898Z,71.05
2023-01-10T19:47:03.513Z,71.25
2023-01-10T19:50:06.530Z,71.77
2023-01-10T19:53:09.247Z,71.93
2023-01-10T19:56:13.755Z,72.99
2023-01-10T19:59:17.765Z,72.45
2023-01-10T20:02:20.585Z,72.15
2023-01-10T20:05:24.022Z,73.49
2023-01-10T20:08:26.475Z,72.82
2023-01-10T20:11:37.611Z,72.62
2023-01-10T20:14:40.653Z,73.94
2023-01-10T20:17:43.307Z,73.97
2023-01-10T20:20:45.920Z,74.92
2023-01-10T20:23:48.740Z,74.48
2023-01-10T20:26:51.495Z,74.44
2023-01-10T20:29:53.959Z,74.84
2023-01-10T20:32:56.723Z,75.17
2023-01-10T20:36:08.597Z,74.81
2023-01-10T20:39:11.116Z,75.03
2023-01-10T20:42:13.892Z,74.95
2023-01-10T20:45:16.673Z,74.99
2023-01-10T20:48:19.204Z,75.01
2023-01-10T20:51:25.090Z,75.07
2023-01-10T20:54:27.548Z,75.75
2023-01-10T20:57:30.895Z,75.61
2023-01-10T21:00:34.820Z,75.31
2023-01-10T21:03:37.467Z,75.15
2023-01-10T21:06:40.082Z,75.56
2023-01-10T21:09:42.796Z,74.67
2023-01-10T21:12:45.359Z,74.25
2023-01-10T21:15:51.856Z,74.86
2023-01-10T21:18:54.523Z,75.09
2023-01-10T21:21:56.932Z,74.66
2023-01-10T21:24:59.444Z,75.39
2023-01-10T21:28:02.219Z,75.02
2023-01-10T21:31:05.945Z,74.94
2023-01-10T21:34:08.446Z,74.76
2023-01-10T21:37:10.928Z,75.01
2023-01-10T21:40:13.410Z,75.75
2023-01-10T21:43:15.871Z,76.51
2023-01-10T21:46:18.367Z,76.27
2023-01-10T21:49:21.841Z,76.29
2023-01-10T21:52:24.376Z,76.49
2023-01-10T21:55:26.836Z,76.73
2023-01-10T21:58:29.335Z,78.11
2023-01-10T22:01:31.908Z,77.54
2023-01-10T22:04:34.376Z,78.38
2023-01-10T22:07:37.707Z,78.47
2023-01-10T22:10:42.107Z,78.02
2023-01-10T22:13:44.626Z,78.37
2023-01-10T22:16:47.132Z,78.31
2023-01-10T22:19:49.887Z,78.92
2023-01-10T22:22:52.507Z,78.91
2023-01-10T22:26:06.046Z,79.39
2023-01-10T22:29:08.561Z,79.57
2023-01-10T22:32:11.653Z,79.46
2023-01-10T22:35:14.748Z,80.08
2023-01-10T22:38:17.212Z,79.75
2023-01-10T22:41:26.528Z,80.31
2023-01-10T22:44:29.075Z,80.47
2023-01-10T22:47:31.503Z,79.66
2023-01-10T22:50:34.361Z,79.71
2023-01-10T22:53:36.939Z,79.61
2023-01-10T22:56:39.520Z,80.83
2023-01-10T22:59:41.980Z,79.99
2023-01-10T23:02:44.509Z,80.09
2023-01-10T23:05:47.048Z,80.39
2023-01-10T23:08:50.525Z,80.65
2023-01-10T23:11:52.921Z,80.44
2023-01-10T23:14:55.395Z,80.75
2023-01-10T23:17:57.950Z,80.56
2023-01-10T23:21:00.939Z,80.83
2023-01-10T23:24:03.568Z,81.15
2023-01-10T23:27:05.935Z,81.55
2023-01-10T23:30:10.782Z,81.46
2023-01-10T23:33:13.405Z,82.21
2023-01-10T23:36:16.895Z,81.96
2023-01-10T23:39:19.551Z,82.18
2023-01-10T23:42:22.276Z,82.34
2023-01-10T23:45:25.000Z,82.56
2023-01-10T23:48:28.222Z,82.55
2023-01-10T23:51:30.774Z,83.00
2023-01-10T23:54:33.470Z,83.30
2023-01-10T23:57:35.952Z,82.52
